Time;durP1;ratioP1;P1;durP2;ratioP2;P2;SDS_P1;SDS_P2;PMS_P1;PMS_P2;Temp;Humidity;BMP_temperature;BMP_pressure;BME280_temperature;BME280_humidity;BME280_pressure;Samples;Min_cycle;Max_cycle;Signal;HPM_P1;HPM_P2
2023/12/21 00:00:02;;;;;;;95.88;63.47;;;;;;;1.63;100.00;92491.22;5111304;27;20047;-80
2023/12/21 00:02:29;;;;;;;96.63;61.75;;;;;;;1.69;100.00;92500.66;5113139;27;20447;-79
2023/12/21 00:04:56;;;;;;;91.32;57.53;;;;;;;1.75;100.00;92504.25;5111428;27;20044;-80
2023/12/21 00:07:23;;;;;;;88.25;56.90;;;;;;;1.58;100.00;92475.78;5111447;27;20194;-80
2023/12/21 00:09:50;;;;;;;87.70;55.42;;;;;;;1.71;100.00;92495.44;5113261;27;20079;-80
2023/12/21 00:12:17;;;;;;;80.93;50.88;;;;;;;1.76;100.00;92492.38;5128993;27;20047;-80
2023/12/21 00:14:45;;;;;;;75.15;46.33;;;;;;;1.62;100.00;92476.22;5122468;27;20134;-79
2023/12/21 00:17:12;;;;;;;76.07;49.25;;;;;;;1.68;100.00;92490.72;5113329;27;20043;-79
2023/12/21 00:19:39;;;;;;;77.82;50.45;;;;;;;1.70;100.00;92503.97;5110967;27;20055;-80
2023/12/21 00:22:06;;;;;;;81.63;50.38;;;;;;;1.78;100.00;92505.63;5125299;27;20132;-80
2023/12/21 00:24:33;;;;;;;82.47;50.55;;;;;;;0.79;100.00;92353.78;5118038;27;20091;-80
2023/12/21 00:27:00;;;;;;;79.47;47.15;;;;;;;1.80;100.00;92503.75;5112484;27;20043;-80
2023/12/21 00:29:26;;;;;;;75.38;46.20;;;;;;;1.82;100.00;92519.53;5110759;27;20055;-80
2023/12/21 00:31:55;;;;;;;84.63;49.35;;;;;;;1.80;100.00;92507.03;5112806;27;20144;-80
2023/12/21 00:34:22;;;;;;;82.97;47.47;;;;;;;1.84;100.00;92515.06;5111097;27;20126;-80
2023/12/21 00:36:49;;;;;;;70.20;43.08;;;;;;;1.83;100.00;92504.19;5110736;27;20058;-80
2023/12/21 00:39:16;;;;;;;68.25;40.40;;;;;;;1.90;100.00;92516.91;5111480;27;20073;-79
2023/12/21 00:41:43;;;;;;;75.97;42.10;;;;;;;1.83;100.00;92516.84;5110168;27;20495;-80
2023/12/21 00:44:09;;;;;;;63.13;37.05;;;;;;;1.77;100.00;92509.13;5112718;27;20040;-79
2023/12/21 00:46:36;;;;;;;68.10;40.85;;;;;;;0.67;100.00;92426.69;5117211;27;20043;-78
2023/12/21 00:49:05;;;;;;;68.05;39.85;;;;;;;1.58;100.00;92521.34;5111470;27;20130;-78
2023/12/21 00:51:32;;;;;;;63.78;39.28;;;;;;;1.45;100.00;92537.09;5128328;27;20134;-78
2023/12/21 00:53:59;;;;;;;77.10;42.80;;;;;;;1.41;100.00;92526.53;5111667;27;20044;-76
2023/12/21 00:56:26;;;;;;;102.75;53.78;;;;;;;1.42;100.00;92530.63;5114945;27;20051;-76
2023/12/21 00:58:53;;;;;;;107.03;57.38;;;;;;;1.44;100.00;92530.47;5111298;27;20051;-76
2023/12/21 01:01:20;;;;;;;109.18;62.88;;;;;;;1.45;100.00;92532.81;5109390;28;20043;-76
2023/12/21 01:03:48;;;;;;;88.20;58.92;;;;;;;1.45;100.00;92535.34;5109311;28;20051;-76
2023/12/21 01:06:16;;;;;;;86.53;53.28;;;;;;;1.09;100.00;92535.13;5109948;28;20040;-77
2023/12/21 01:08:43;;;;;;;135.80;71.88;;;;;;;0.38;100.00;92545.13;5114071;27;20053;-76
2023/12/21 01:11:10;;;;;;;128.18;69.45;;;;;;;0.67;100.00;92548.00;5118356;27;20216;-76
2023/12/21 01:13:37;;;;;;;106.68;62.17;;;;;;;0.78;100.00;92552.69;5113095;27;20055;-76
2023/12/21 01:16:05;;;;;;;92.05;54.97;;;;;;;0.82;100.00;92553.16;5112459;27;20054;-76
2023/12/21 01:18:32;;;;;;;93.53;53.13;;;;;;;0.84;100.00;92553.00;5111348;27;20414;-79
2023/12/21 01:20:59;;;;;;;89.53;53.50;;;;;;;0.94;100.00;92556.09;5109514;27;20060;-77
2023/12/21 01:23:27;;;;;;;86.43;53.30;;;;;;;0.95;100.00;92554.34;5111632;27;20066;-78
2023/12/21 01:25:54;;;;;;;90.90;53.30;;;;;;;1.12;100.00;92565.97;5121833;27;20679;-78
2023/12/21 01:28:21;;;;;;;94.45;56.85;;;;;;;1.17;100.00;92563.69;5109038;27;20051;-77
2023/12/21 01:30:48;;;;;;;96.38;54.95;;;;;;;1.24;100.00;92568.88;5111452;27;20047;-76
2023/12/21 01:33:15;;;;;;;87.32;52.25;;;;;;;1.14;100.00;92563.25;5110611;27;20082;-77
2023/12/21 01:35:42;;;;;;;78.25;46.40;;;;;;;1.16;100.00;92553.75;5112941;27;20053;-77
2023/12/21 01:38:08;;;;;;;75.05;44.15;;;;;;;1.10;100.00;92536.72;5114141;27;20052;-77
2023/12/21 01:40:37;;;;;;;75.28;42.63;;;;;;;1.26;100.00;92559.38;5108667;27;20057;-77
2023/12/21 01:43:04;;;;;;;65.60;40.22;;;;;;;1.23;100.00;92564.78;5114527;27;20461;-77
2023/12/21 01:45:31;;;;;;;73.03;40.70;;;;;;;1.24;100.00;92557.97;5117580;27;20043;-76
2023/12/21 01:47:59;;;;;;;52.15;34.33;;;;;;;1.30;100.00;92547.19;5109235;27;20130;-76
2023/12/21 01:50:27;;;;;;;56.75;33.35;;;;;;;1.24;100.00;92540.28;5109273;27;20059;-76
2023/12/21 01:52:56;;;;;;;46.92;27.00;;;;;;;1.22;100.00;92542.16;5109729;27;20047;-77
2023/12/21 01:55:23;;;;;;;39.55;24.10;;;;;;;1.14;100.00;92533.69;5108716;27;20559;-77
2023/12/21 01:57:52;;;;;;;48.25;28.85;;;;;;;1.26;100.00;92538.34;5118340;27;20139;-77
2023/12/21 02:00:19;;;;;;;68.90;40.15;;;;;;;1.33;100.00;92537.50;5108435;28;20056;-76
2023/12/21 02:02:46;;;;;;;69.65;41.78;;;;;;;1.26;100.00;92533.28;5108938;27;20043;-76
2023/12/21 02:05:13;;;;;;;77.65;50.38;;;;;;;1.21;100.00;92526.22;5109423;27;20039;-76
2023/12/21 02:07:41;;;;;;;82.45;52.90;;;;;;;1.31;100.00;92525.97;5110389;27;20582;-76
2023/12/21 02:10:09;;;;;;;82.85;50.97;;;;;;;1.41;100.00;92525.72;5108542;27;20167;-76
2023/12/21 02:12:36;;;;;;;84.07;53.97;;;;;;;1.35;100.00;92511.22;5108699;28;20051;-76
2023/12/21 02:15:06;;;;;;;85.20;51.72;;;;;;;1.35;100.00;92511.22;5114668;27;20073;-77
2023/12/21 02:17:35;;;;;;;83.75;52.92;;;;;;;1.40;100.00;92514.03;5127173;27;20423;-77
2023/12/21 02:20:03;;;;;;;86.70;52.72;;;;;;;1.49;100.00;92519.81;5127376;27;20043;-77
2023/12/21 02:22:34;;;;;;;81.53;52.05;;;;;;;1.35;100.00;92508.72;5111025;27;20101;-77
2023/12/21 02:25:03;;;;;;;81.35;50.67;;;;;;;1.46;100.00;92520.94;5103040;27;20173;-76
2023/12/21 02:27:29;;;;;;;88.63;55.60;;;;;;;1.30;100.00;92511.75;5106072;27;20057;-75
2023/12/21 02:29:56;;;;;;;81.53;52.70;;;;;;;1.36;100.00;92520.41;5110124;27;20055;-76
2023/12/21 02:32:23;;;;;;;78.32;51.28;;;;;;;1.40;100.00;92519.09;5112516;27;20050;-76
2023/12/21 02:34:50;;;;;;;80.97;51.60;;;;;;;1.01;100.00;92458.38;5108298;27;20043;-76
2023/12/21 02:37:19;;;;;;;81.93;52.20;;;;;;;1.44;100.00;92522.88;5107780;27;20118;-76
2023/12/21 02:39:46;;;;;;;81.45;50.63;;;;;;;1.44;100.00;92522.88;5108194;27;20050;-76
2023/12/21 02:42:14;;;;;;;79.18;48.50;;;;;;;1.49;100.00;92517.28;5108766;27;20122;-75
2023/12/21 02:44:41;;;;;;;84.22;50.15;;;;;;;1.51;100.00;92511.09;5112266;27;20051;-76
2023/12/21 02:47:08;;;;;;;81.30;51.97;;;;;;;1.29;100.00;92502.59;5114252;27;20125;-76
2023/12/21 02:49:35;;;;;;;85.60;54.38;;;;;;;1.26;100.00;92516.38;5108293;28;20495;-76
2023/12/21 02:52:02;;;;;;;85.63;54.15;;;;;;;1.27;100.00;92514.63;5110294;27;20047;-76
2023/12/21 02:54:29;;;;;;;81.88;51.72;;;;;;;1.24;100.00;92512.44;5109331;27;20047;-76
2023/12/21 02:56:56;;;;;;;79.35;49.33;;;;;;;1.20;100.00;92506.91;5109149;27;20419;-76
2023/12/21 02:59:24;;;;;;;87.97;53.20;;;;;;;1.35;100.00;92511.22;5108112;27;20058;-76
2023/12/21 03:01:51;;;;;;;79.93;51.47;;;;;;;1.42;100.00;92512.13;5108112;28;20154;-78
2023/12/21 03:04:18;;;;;;;81.47;51.63;;;;;;;1.49;100.00;92497.84;5114154;28;20815;-77
2023/12/21 03:06:45;;;;;;;76.03;47.95;;;;;;;1.52;100.00;92500.00;5125232;27;20150;-75
2023/12/21 03:09:12;;;;;;;78.43;48.35;;;;;;;1.47;100.00;92494.69;5126187;27;20757;-75
2023/12/21 03:11:39;;;;;;;76.80;49.20;;;;;;;1.61;100.00;92508.31;5127111;27;20051;-75
2023/12/21 03:14:06;;;;;;;81.43;50.70;;;;;;;1.64;100.00;92507.19;5110011;27;20046;-76
2023/12/21 03:16:35;;;;;;;85.18;49.58;;;;;;;1.62;100.00;92502.28;5113977;27;20045;-76
2023/12/21 03:19:02;;;;;;;77.03;47.20;;;;;;;1.64;100.00;92509.72;5112348;27;20132;-75
2023/12/21 03:21:29;;;;;;;72.30;45.97;;;;;;;1.64;100.00;92502.13;5112255;28;20055;-75
2023/12/21 03:23:56;;;;;;;75.20;47.20;;;;;;;1.69;100.00;92513.31;5120946;27;20043;-76
2023/12/21 03:26:23;;;;;;;81.55;50.08;;;;;;;1.56;100.00;92493.66;5116530;27;20051;-76
2023/12/21 03:28:50;;;;;;;77.60;48.22;;;;;;;1.71;100.00;92523.28;5125411;27;20047;-76
2023/12/21 03:31:18;;;;;;;61.03;36.97;;;;;;;1.74;100.00;92520.41;5120068;27;20043;-76
2023/12/21 03:33:47;;;;;;;52.95;35.05;;;;;;;1.78;100.00;92523.38;5117665;27;20047;-76
2023/12/21 03:36:14;;;;;;;55.75;35.20;;;;;;;1.76;100.00;92521.00;5112923;27;20100;-76
2023/12/21 03:38:41;;;;;;;54.00;35.42;;;;;;;1.81;100.00;92523.03;5118299;27;20046;-76
2023/12/21 03:41:08;;;;;;;53.25;34.05;;;;;;;1.82;100.00;92535.53;5117168;27;20162;-76
2023/12/21 03:43:35;;;;;;;55.85;36.33;;;;;;;1.84;100.00;92528.53;5112234;27;20213;-78
2023/12/21 03:46:05;;;;;;;53.50;36.08;;;;;;;1.89;100.00;92530.53;5118885;27;20134;-78
2023/12/21 03:48:32;;;;;;;56.95;37.35;;;;;;;1.84;100.00;92527.72;5111440;27;20050;-77
2023/12/21 03:51:00;;;;;;;57.35;34.92;;;;;;;1.77;100.00;92519.25;5116869;27;20430;-77
2023/12/21 03:53:28;;;;;;;56.13;35.08;;;;;;;1.82;100.00;92533.00;5116242;27;20048;-76
2023/12/21 03:55:55;;;;;;;69.05;45.05;;;;;;;1.75;100.00;92543.97;5112505;27;20063;-76
2023/12/21 03:58:22;;;;;;;62.33;39.22;;;;;;;1.68;100.00;92548.94;5115582;27;20043;-76
2023/12/21 04:00:49;;;;;;;83.00;52.70;;;;;;;1.67;100.00;92527.88;5121013;27;20047;-75
2023/12/21 04:03:16;;;;;;;72.55;43.80;;;;;;;1.75;100.00;92539.69;5113069;27;20047;-76
2023/12/21 04:05:43;;;;;;;75.78;47.85;;;;;;;1.77;100.00;92540.31;5118458;27;20075;-76
2023/12/21 04:08:15;;;;;;;72.55;48.25;;;;;;;1.87;100.00;92540.06;5115711;27;20130;-77
2023/12/21 04:10:42;;;;;;;47.85;30.48;;;;;;;1.85;100.00;92539.47;5115361;27;20051;-77
2023/12/21 04:13:09;;;;;;;54.08;33.45;;;;;;;1.92;100.00;92539.53;5117583;27;20054;-77
2023/12/21 04:15:36;;;;;;;50.80;33.13;;;;;;;1.92;100.00;92542.06;5115438;27;20050;-77
2023/12/21 04:18:03;;;;;;;68.07;43.22;;;;;;;2.06;100.00;92532.91;5101433;27;20150;-77
2023/12/21 04:20:30;;;;;;;48.10;34.42;;;;;;;2.02;100.00;92529.94;5104816;27;20134;-77
2023/12/21 04:22:57;;;;;;;45.63;34.00;;;;;;;2.04;100.00;92525.47;5114039;27;20167;-77
2023/12/21 04:25:30;;;;;;;48.97;34.20;;;;;;;2.16;100.00;92535.19;5116080;27;20600;-77
2023/12/21 04:28:00;;;;;;;57.63;36.15;;;;;;;2.16;100.00;92517.47;5116629;27;20045;-78
2023/12/21 04:30:34;;;;;;;75.50;39.67;;;;;;;2.35;100.00;92537.19;5117529;27;20052;-77
2023/12/21 04:33:03;;;;;;;72.78;40.97;;;;;;;2.33;100.00;92531.53;5112882;27;20514;-77
2023/12/21 04:35:30;;;;;;;44.20;30.02;;;;;;;2.36;100.00;92517.72;5121657;27;20100;-77
2023/12/21 04:37:58;;;;;;;35.10;24.15;;;;;;;2.46;100.00;92519.97;5114694;27;20047;-77
2023/12/21 04:40:26;;;;;;;21.60;16.20;;;;;;;2.42;100.00;92513.69;5115573;27;20549;-77
2023/12/21 04:42:55;;;;;;;22.27;15.80;;;;;;;2.43;100.00;92523.66;5116168;27;20159;-77
2023/12/21 04:45:22;;;;;;;25.05;18.30;;;;;;;2.59;100.00;92524.41;5119037;27;20051;-77
2023/12/21 04:47:49;;;;;;;25.10;18.95;;;;;;;2.52;100.00;92527.66;5114000;27;20048;-76
2023/12/21 04:50:16;;;;;;;23.85;17.77;;;;;;;2.71;100.00;92529.78;5113085;27;20050;-77
2023/12/21 04:52:43;;;;;;;25.65;18.83;;;;;;;2.61;100.00;92530.88;5111933;27;20055;-77
2023/12/21 04:55:10;;;;;;;26.48;18.38;;;;;;;2.34;100.00;92510.28;5115137;27;20529;-77
2023/12/21 04:57:38;;;;;;;18.85;13.07;;;;;;;2.61;100.00;92519.94;5110170;27;20069;-77
2023/12/21 05:00:12;;;;;;;30.48;20.38;;;;;;;2.66;100.00;92522.72;5112232;27;20062;-77
2023/12/21 05:02:45;;;;;;;19.45;13.63;;;;;;;2.29;100.00;92509.22;5109984;27;20044;-77
2023/12/21 05:05:12;;;;;;;18.30;13.13;;;;;;;2.31;100.00;92520.75;5112478;27;20122;-78
2023/12/21 05:07:39;;;;;;;18.08;13.02;;;;;;;2.35;100.00;92503.44;5114758;27;20123;-78
2023/12/21 05:10:06;;;;;;;17.75;13.50;;;;;;;2.46;100.00;92525.03;5110986;27;20047;-77
2023/12/21 05:12:33;;;;;;;20.42;16.13;;;;;;;2.48;100.00;92508.69;5110197;27;20047;-77
2023/12/21 05:15:02;;;;;;;23.67;16.08;;;;;;;2.77;100.00;92536.69;5111367;27;20415;-78
2023/12/21 05:17:28;;;;;;;25.33;16.27;;;;;;;2.89;100.00;92531.94;5111910;27;20061;-78
2023/12/21 05:19:55;;;;;;;100.85;53.80;;;;;;;2.79;100.00;92534.78;5112567;27;20043;-78
2023/12/21 05:22:22;;;;;;;52.58;31.08;;;;;;;2.91;100.00;92535.88;5112747;27;20046;-79
2023/12/21 05:24:49;;;;;;;36.92;21.17;;;;;;;2.78;100.00;92544.13;5115216;27;20122;-78
2023/12/21 05:27:16;;;;;;;55.22;29.83;;;;;;;2.61;100.00;92502.19;5114464;27;20381;-78
2023/12/21 05:29:42;;;;;;;215.70;100.00;;;;;;;2.78;100.00;92539.06;5118622;27;20134;-77
2023/12/21 05:32:10;;;;;;;27.00;15.20;;;;;;;2.76;100.00;92533.38;5118140;27;20119;-77
2023/12/21 05:34:37;;;;;;;53.33;29.25;;;;;;;2.76;100.00;92530.84;5110042;27;20058;-78
2023/12/21 05:37:05;;;;;;;49.47;26.80;;;;;;;2.66;100.00;92522.72;5119225;27;20135;-78
2023/12/21 05:39:31;;;;;;;160.70;98.45;;;;;;;2.86;100.00;92529.78;5113851;27;20053;-78
2023/12/21 05:41:58;;;;;;;63.67;41.95;;;;;;;2.96;100.00;92532.78;5112480;27;20047;-78
2023/12/21 05:44:25;;;;;;;56.35;34.67;;;;;;;2.80;100.00;92526.19;5109973;27;20139;-78
2023/12/21 05:46:53;;;;;;;59.67;32.70;;;;;;;2.86;100.00;92529.78;5109469;27;20054;-78
2023/12/21 05:49:21;;;;;;;47.92;29.02;;;;;;;2.88;100.00;92521.00;5110944;27;20047;-78
2023/12/21 05:51:49;;;;;;;116.50;74.80;;;;;;;2.92;100.00;92529.84;5112607;27;20052;-77
2023/12/21 05:54:16;;;;;;;36.33;22.02;;;;;;;2.75;100.00;92506.47;5109639;27;20058;-78
2023/12/21 05:56:43;;;;;;;37.85;22.88;;;;;;;2.71;100.00;92517.13;5109825;27;20051;-78
2023/12/21 05:59:11;;;;;;;28.20;16.27;;;;;;;2.51;100.00;92502.47;5109251;27;20058;-78
2023/12/21 06:01:38;;;;;;;22.85;15.75;;;;;;;2.62;100.00;92518.97;5108506;27;20062;-78
2023/12/21 06:04:05;;;;;;;39.10;23.48;;;;;;;2.60;100.00;92515.84;5109637;27;20597;-78
2023/12/21 06:06:36;;;;;;;26.60;18.42;;;;;;;2.69;100.00;92524.13;5109907;27;20122;-77
2023/12/21 06:09:03;;;;;;;45.50;33.13;;;;;;;2.66;100.00;92520.19;5111852;27;20087;-77
2023/12/21 06:11:30;;;;;;;166.43;102.43;;;;;;;2.62;100.00;92527.38;5126218;27;20505;-77
2023/12/21 06:13:57;;;;;;;66.68;41.15;;;;;;;2.78;100.00;92530.69;5115506;27;20058;-78
2023/12/21 06:16:24;;;;;;;35.30;23.20;;;;;;;2.86;100.00;92530.56;5111608;27;20126;-78
2023/12/21 06:18:51;;;;;;;54.78;35.70;;;;;;;2.91;100.00;92522.41;5116036;27;20043;-78
2023/12/21 06:21:18;;;;;;;40.85;27.73;;;;;;;2.92;100.00;92521.47;5112980;27;20047;-78
2023/12/21 06:23:47;;;;;;;30.75;22.63;;;;;;;2.97;100.00;92523.44;5110847;27;20092;-78
2023/12/21 06:26:14;;;;;;;24.52;17.83;;;;;;;2.98;100.00;92515.66;5111529;27;20059;-78
2023/12/21 06:28:41;;;;;;;30.38;26.75;;;;;;;2.90;100.00;92518.28;5112437;27;20092;-78
2023/12/21 06:31:09;;;;;;;30.55;23.20;;;;;;;2.94;100.00;92532.19;5110807;27;20154;-78
2023/12/21 06:33:36;;;;;;;27.67;21.75;;;;;;;2.97;100.00;92526.78;5112473;27;20056;-77
2023/12/21 06:36:03;;;;;;;25.90;20.67;;;;;;;3.02;100.00;92524.47;5108896;27;20184;-78
2023/12/21 06:38:30;;;;;;;22.80;17.40;;;;;;;2.90;100.00;92508.94;5108865;27;20402;-78
2023/12/21 06:40:58;;;;;;;20.77;17.15;;;;;;;2.93;100.00;92525.56;5108470;28;20499;-78
2023/12/21 06:43:25;;;;;;;21.88;17.45;;;;;;;2.98;100.00;92533.41;5108693;27;20058;-78
2023/12/21 06:45:52;;;;;;;23.75;16.88;;;;;;;2.91;100.00;92530.00;5108674;27;20058;-78
2023/12/21 06:48:19;;;;;;;21.58;15.60;;;;;;;2.96;100.00;92532.78;5107848;28;20162;-77
2023/12/21 06:50:46;;;;;;;21.17;15.40;;;;;;;3.03;100.00;92535.41;5107909;27;20152;-77
2023/12/21 06:53:15;;;;;;;21.02;16.20;;;;;;;2.94;100.00;92534.75;5108908;27;20527;-77
2023/12/21 06:55:42;;;;;;;20.50;15.80;;;;;;;3.04;100.00;92544.59;5110331;27;20043;-77
2023/12/21 06:58:11;;;;;;;24.42;17.90;;;;;;;3.10;100.00;92535.47;5108748;28;20044;-78
2023/12/21 07:00:38;;;;;;;23.85;18.88;;;;;;;3.12;100.00;92534.34;5110235;27;20049;-78
2023/12/21 07:03:05;;;;;;;17.95;13.13;;;;;;;3.12;100.00;92539.41;5108031;27;20047;-78
2023/12/21 07:05:32;;;;;;;21.35;16.17;;;;;;;3.01;100.00;92540.66;5109803;28;20126;-78
2023/12/21 07:07:59;;;;;;;15.52;12.00;;;;;;;3.09;100.00;92541.53;5108272;27;20048;-78
2023/12/21 07:10:26;;;;;;;69.93;46.85;;;;;;;3.24;100.00;92546.56;5110290;28;20139;-79
2023/12/21 07:12:53;;;;;;;22.90;17.38;;;;;;;3.27;100.00;92533.47;5126036;27;20073;-79
2023/12/21 07:15:21;;;;;;;15.93;13.23;;;;;;;3.38;100.00;92529.69;5110210;27;20126;-79
2023/12/21 07:17:48;;;;;;;14.40;12.80;;;;;;;3.60;100.00;92543.13;5115702;28;20510;-78
2023/12/21 07:20:15;;;;;;;18.52;16.25;;;;;;;3.58;100.00;92534.94;5107238;28;20454;-79
2023/12/21 07:22:42;;;;;;;17.75;13.25;;;;;;;3.70;100.00;92550.47;5110503;28;20113;-78
2023/12/21 07:25:09;;;;;;;15.88;13.68;;;;;;;3.87;100.00;92538.25;5111554;28;20048;-78
2023/12/21 07:27:36;;;;;;;16.33;12.65;;;;;;;4.01;100.00;92544.22;5108305;28;20054;-79
2023/12/21 07:30:04;;;;;;;18.83;14.32;;;;;;;3.92;100.00;92537.69;5113826;28;20467;-79
2023/12/21 07:32:32;;;;;;;19.92;14.98;;;;;;;3.98;100.00;92536.97;5107599;27;20052;-79
2023/12/21 07:34:59;;;;;;;18.17;14.02;;;;;;;3.87;100.00;92541.59;5108409;28;20048;-79
2023/12/21 07:37:26;;;;;;;13.82;11.38;;;;;;;3.74;99.98;92534.66;5108175;28;20090;-79
2023/12/21 07:39:53;;;;;;;15.57;12.40;;;;;;;3.81;100.00;92546.63;5119125;28;20039;-79
2023/12/21 07:42:20;;;;;;;13.95;10.05;;;;;;;3.81;99.45;92549.97;5112446;28;20050;-78
2023/12/21 07:44:47;;;;;;;13.52;10.18;;;;;;;3.87;100.00;92556.03;5110543;28;20162;-79
2023/12/21 07:47:14;;;;;;;15.60;11.18;;;;;;;3.59;100.00;92554.25;5110702;28;20043;-78
2023/12/21 07:49:42;;;;;;;13.82;9.98;;;;;;;3.16;100.00;92519.53;5113803;28;20770;-78
2023/12/21 07:52:09;;;;;;;13.68;10.30;;;;;;;3.35;100.00;92556.22;5112827;28;20071;-78
2023/12/21 07:54:36;;;;;;;14.55;10.65;;;;;;;3.30;100.00;92555.97;5110735;28;20054;-78
2023/12/21 07:57:04;;;;;;;19.13;13.77;;;;;;;3.52;100.00;92563.59;5108759;28;20124;-78
2023/12/21 07:59:30;;;;;;;11.57;9.30;;;;;;;3.26;100.00;92562.38;5106565;28;20150;-78
2023/12/21 08:01:57;;;;;;;16.75;12.20;;;;;;;3.43;100.00;92561.16;5121224;27;20170;-78
2023/12/21 08:04:24;;;;;;;19.95;13.35;;;;;;;3.58;100.00;92558.59;5114586;27;20047;-77
2023/12/21 08:06:53;;;;;;;16.48;11.27;;;;;;;3.35;100.00;92563.84;5114950;27;20047;-78
2023/12/21 08:09:20;;;;;;;20.70;12.70;;;;;;;3.23;100.00;92555.13;5120071;27;20059;-78
2023/12/21 08:11:46;;;;;;;16.35;11.57;;;;;;;3.24;100.00;92574.47;5115775;27;20495;-77
2023/12/21 08:14:13;;;;;;;14.02;11.10;;;;;;;3.25;100.00;92565.88;5111034;27;20052;-77
2023/12/21 08:16:40;;;;;;;12.85;9.77;;;;;;;3.18;100.00;92566.59;5117563;27;20047;-78
2023/12/21 08:19:07;;;;;;;28.17;17.95;;;;;;;3.20;100.00;92568.97;5125715;27;20050;-78
2023/12/21 08:21:35;;;;;;;28.98;18.92;;;;;;;3.05;100.00;92543.63;5118775;27;20043;-78
2023/12/21 08:24:03;;;;;;;14.38;10.38;;;;;;;3.26;100.00;92563.16;5111141;28;20044;-78
2023/12/21 08:26:31;;;;;;;13.38;9.52;;;;;;;3.04;100.00;92577.56;5111205;27;20047;-76
2023/12/21 08:28:58;;;;;;;11.88;8.15;;;;;;;3.24;100.00;92574.47;5110961;27;20066;-77
2023/12/21 08:31:25;;;;;;;12.68;9.30;;;;;;;3.53;100.00;92568.50;5111047;27;20172;-77
2023/12/21 08:34:12;;;;;;;15.07;10.25;;;;;;;3.84;100.00;92574.97;5111063;27;20052;-77
2023/12/21 08:36:39;;;;;;;10.88;8.70;;;;;;;3.92;100.00;92574.06;5110929;27;20051;-77
2023/12/21 08:39:07;;;;;;;12.50;9.07;;;;;;;4.09;100.00;92558.53;5114053;27;20133;-77
2023/12/21 08:41:34;;;;;;;10.82;8.95;;;;;;;4.24;99.14;92564.31;5109792;27;20047;-77
2023/12/21 08:44:01;;;;;;;12.07;9.35;;;;;;;3.72;95.90;92566.28;5112297;27;20044;-77
2023/12/21 08:46:28;;;;;;;10.77;8.38;;;;;;;4.04;98.01;92563.41;5110387;27;20047;-77
2023/12/21 08:48:55;;;;;;;16.58;10.85;;;;;;;4.10;97.82;92560.09;5110165;27;20050;-77
2023/12/21 08:51:22;;;;;;;10.07;8.10;;;;;;;3.94;95.71;92572.13;5110628;27;20040;-76
2023/12/21 08:53:49;;;;;;;12.73;9.55;;;;;;;4.27;96.88;92565.69;5110233;27;21607;-76
2023/12/21 08:56:17;;;;;;;23.02;14.40;;;;;;;4.36;98.09;92556.94;5112239;27;20048;-76
2023/12/21 08:58:44;;;;;;;10.73;8.00;;;;;;;3.80;94.73;92560.31;5112356;27;20049;-76
2023/12/21 09:01:11;;;;;;;12.57;9.02;;;;;;;4.06;96.02;92548.72;5109783;27;20043;-76
2023/12/21 09:03:38;;;;;;;11.40;8.60;;;;;;;4.27;96.35;92550.44;5113541;27;20501;-76
2023/12/21 09:06:06;;;;;;;25.65;15.40;;;;;;;4.58;97.60;92538.28;5110291;27;20047;-76
2023/12/21 09:08:33;;;;;;;24.52;15.13;;;;;;;4.57;96.78;92518.91;5110323;27;20154;-76
2023/12/21 09:11:00;;;;;;;39.42;21.70;;;;;;;4.93;97.51;92530.56;5117527;27;20050;-76
2023/12/21 09:13:29;;;;;;;14.02;8.98;;;;;;;4.72;93.55;92516.22;5113456;27;20150;-77
2023/12/21 09:15:56;;;;;;;11.82;7.57;;;;;;;4.54;93.77;92522.59;5113886;27;20046;-76
2023/12/21 09:18:22;;;;;;;14.77;9.35;;;;;;;4.59;93.29;92525.38;5112854;27;20054;-77
2023/12/21 09:20:49;;;;;;;15.45;10.35;;;;;;;4.94;95.24;92516.84;5126677;27;20575;-77
2023/12/21 09:23:16;;;;;;;14.07;9.40;;;;;;;5.08;94.29;92515.13;5109551;27;20139;-77
2023/12/21 09:25:43;;;;;;;12.70;8.88;;;;;;;4.81;91.68;92498.03;5111221;27;20134;-77
2023/12/21 09:28:10;;;;;;;16.67;10.75;;;;;;;5.14;92.52;92516.91;5109699;27;20944;-77
2023/12/21 09:30:38;;;;;;;31.95;18.48;;;;;;;5.34;93.46;92511.06;5109663;27;20050;-77
2023/12/21 09:33:05;;;;;;;48.15;22.80;;;;;;;5.59;94.76;92510.47;5112034;27;20086;-77
2023/12/21 09:35:32;;;;;;;28.67;15.73;;;;;;;5.62;91.05;92510.09;5116375;27;20506;-77
2023/12/21 09:37:59;;;;;;;29.23;17.17;;;;;;;5.76;91.56;92503.22;5114037;27;20053;-77
2023/12/21 09:40:26;;;;;;;12.05;7.97;;;;;;;5.42;88.05;92515.19;5110521;27;20146;-77
2023/12/21 09:42:57;;;;;;;9.70;6.80;;;;;;;5.27;88.19;92500.84;5113680;27;20051;-77
2023/12/21 09:45:26;;;;;;;33.85;16.75;;;;;;;5.52;91.93;92496.97;5119646;27;20043;-78
2023/12/21 09:47:54;;;;;;;30.35;15.65;;;;;;;5.55;90.23;92491.47;5109286;27;20052;-77
2023/12/21 09:50:22;;;;;;;11.00;8.18;;;;;;;5.31;89.16;92480.88;5119339;27;20049;-77
2023/12/21 09:52:50;;;;;;;11.88;8.13;;;;;;;5.21;88.99;92458.34;5113405;27;20051;-77
2023/12/21 09:55:21;;;;;;;34.95;17.70;;;;;;;5.40;90.78;92471.28;5109149;27;20579;-77
2023/12/21 09:57:48;;;;;;;10.75;6.95;;;;;;;5.07;88.09;92449.91;5109809;27;20877;-77
2023/12/21 10:00:15;;;;;;;11.05;7.70;;;;;;;4.82;88.13;92466.53;5109799;27;20388;-77
2023/12/21 10:02:43;;;;;;;14.88;9.38;;;;;;;4.84;89.69;92453.59;5111119;27;20052;-77
2023/12/21 10:05:11;;;;;;;12.73;8.52;;;;;;;4.93;89.04;92464.38;5109468;27;20704;-77
2023/12/21 10:07:39;;;;;;;11.57;8.23;;;;;;;4.97;88.46;92469.88;5109766;27;20056;-77
2023/12/21 10:10:07;;;;;;;14.02;9.10;;;;;;;5.03;88.49;92457.16;5115739;27;20093;-77
2023/12/21 10:12:34;;;;;;;12.52;8.15;;;;;;;5.18;90.37;92451.09;5111030;27;20055;-77
2023/12/21 10:15:03;;;;;;;41.38;22.92;;;;;;;5.33;90.15;92448.38;5110943;27;20062;-77
2023/12/21 10:17:32;;;;;;;31.67;16.67;;;;;;;5.56;91.53;92437.00;5108833;27;20051;-77
2023/12/21 10:20:00;;;;;;;15.27;8.48;;;;;;;5.66;91.13;92434.84;5115592;27;20853;-76
2023/12/21 10:22:28;;;;;;;13.25;7.70;;;;;;;5.48;87.25;92437.97;5108973;27;20048;-76
2023/12/21 10:24:55;;;;;;;12.70;7.10;;;;;;;5.49;87.03;92434.44;5122731;27;20130;-77
2023/12/21 10:27:25;;;;;;;9.90;6.75;;;;;;;5.48;87.07;92423.47;5115769;27;20101;-77
2023/12/21 10:29:54;;;;;;;11.80;6.80;;;;;;;5.35;86.72;92431.13;5109397;27;20043;-77
2023/12/21 10:32:21;;;;;;;12.10;6.72;;;;;;;5.28;86.76;92426.03;5109211;27;20051;-76
2023/12/21 10:34:48;;;;;;;10.38;6.82;;;;;;;5.13;86.80;92416.03;5123876;27;20054;-76
2023/12/21 10:37:16;;;;;;;8.35;5.65;;;;;;;5.01;86.78;92417.59;5118827;27;20043;-77
2023/12/21 10:39:45;;;;;;;9.02;6.20;;;;;;;5.17;87.59;92385.88;5107816;27;20495;-76
2023/12/21 10:42:14;;;;;;;14.63;7.78;;;;;;;5.35;88.05;92403.91;5108475;27;20048;-76
2023/12/21 10:44:44;;;;;;;11.48;7.72;;;;;;;5.47;89.91;92382.94;5114671;27;20150;-76
2023/12/21 10:47:12;;;;;;;20.58;8.15;;;;;;;5.67;89.86;92382.88;5108391;27;20047;-76
2023/12/21 10:49:40;;;;;;;17.45;9.18;;;;;;;5.72;89.10;92384.81;5107042;27;20043;-77
2023/12/21 10:52:08;;;;;;;15.20;9.55;;;;;;;5.82;89.47;92380.09;5108944;27;20523;-76
2023/12/21 10:54:38;;;;;;;14.18;8.77;;;;;;;5.92;89.60;92374.56;5110098;27;20081;-77
2023/12/21 10:57:08;;;;;;;13.77;8.63;;;;;;;5.76;86.22;92352.88;5111383;27;20051;-76
2023/12/21 10:59:36;;;;;;;19.20;11.30;;;;;;;6.04;88.42;92367.13;5108159;28;20048;-76
2023/12/21 11:02:05;;;;;;;16.20;8.77;;;;;;;6.13;87.63;92365.13;5108978;27;20051;-76
2023/12/21 11:04:32;;;;;;;7.55;5.78;;;;;;;5.95;84.97;92360.66;5111949;27;20044;-76
2023/12/21 11:07:00;;;;;;;16.67;7.45;;;;;;;5.99;87.72;92339.66;5109262;27;20053;-76
2023/12/21 11:09:31;;;;;;;12.82;6.70;;;;;;;5.99;85.95;92365.16;5119822;27;20053;-77
2023/12/21 11:11:58;;;;;;;9.98;6.93;;;;;;;5.88;85.84;92358.13;5112163;27;20483;-76
2023/12/21 11:14:27;;;;;;;10.75;6.82;;;;;;;5.82;85.76;92352.06;5107936;28;20054;-76
2023/12/21 11:16:57;;;;;;;9.63;6.53;;;;;;;5.76;85.59;92352.88;5107655;28;20500;-77
2023/12/21 11:19:30;;;;;;;11.32;5.95;;;;;;;5.67;86.58;92341.31;5108551;28;20101;-77
2023/12/21 11:21:58;;;;;;;7.53;5.03;;;;;;;5.67;84.14;92348.97;5110721;28;20051;-77